createdAt,value
2022-08-03T00:00:17.572Z,62.45
2022-08-03T00:03:08.967Z,62.69
2022-08-03T00:06:03.713Z,62.63
2022-08-03T00:08:40.051Z,62.90
2022-08-03T00:11:13.030Z,62.88
2022-08-03T00:13:45.589Z,62.90
2022-08-03T00:16:18.330Z,62.91
2022-08-03T00:18:52.343Z,62.99
2022-08-03T00:21:25.087Z,63.13
2022-08-03T00:23:57.600Z,62.93
2022-08-03T00:26:29.954Z,62.86
2022-08-03T00:29:02.558Z,62.76
2022-08-03T00:31:51.438Z,62.95
2022-08-03T00:34:36.736Z,62.93
2022-08-03T00:37:17.599Z,63.01
2022-08-03T00:39:50.096Z,63.15
2022-08-03T00:42:22.387Z,63.06
2022-08-03T00:45:01.904Z,63.16
2022-08-03T00:47:34.209Z,63.18
2022-08-03T00:50:07.354Z,63.38
2022-08-03T00:52:40.173Z,63.55
2022-08-03T00:55:13.029Z,63.70
2022-08-03T00:57:46.368Z,63.80
2022-08-03T01:00:20.909Z,63.86
2022-08-03T01:02:56.006Z,64.21
2022-08-03T01:05:29.014Z,63.99
2022-08-03T01:08:09.677Z,64.16
2022-08-03T01:10:50.519Z,64.32
2022-08-03T01:14:01.243Z,64.49
2022-08-03T01:16:36.866Z,64.58
2022-08-03T01:19:30.915Z,64.85
2022-08-03T01:22:19.363Z,65.04
2022-08-03T01:24:58.439Z,65.14
2022-08-03T01:27:41.884Z,65.19
2022-08-03T01:30:15.235Z,65.37
2022-08-03T01:33:00.969Z,65.57
2022-08-03T01:35:38.526Z,65.53
2022-08-03T01:38:16.474Z,65.86
2022-08-03T01:40:52.258Z,65.68
2022-08-03T01:43:55.092Z,65.59
2022-08-03T01:46:22.264Z,65.90
2022-08-03T01:48:55.303Z,65.99
2022-08-03T01:52:03.702Z,65.89
2022-08-03T01:54:23.103Z,66.05
2022-08-03T01:56:58.237Z,66.15
2022-08-03T01:59:32.365Z,66.14
2022-08-03T02:02:28.250Z,66.12
2022-08-03T02:04:59.955Z,66.24
2022-08-03T02:07:33.896Z,66.40
2022-08-03T02:10:10.834Z,66.25
2022-08-03T02:12:46.553Z,66.23
2022-08-03T02:15:21.744Z,66.39
2022-08-03T02:17:56.037Z,66.54
2022-08-03T02:20:30.338Z,66.49
2022-08-03T02:23:02.788Z,66.41
2022-08-03T02:25:36.594Z,66.54
2022-08-03T02:28:12.735Z,66.67
2022-08-03T02:30:51.836Z,66.69
2022-08-03T02:33:29.991Z,66.75
2022-08-03T02:36:03.904Z,66.95
2022-08-03T02:38:38.301Z,67.12
2022-08-03T02:41:15.016Z,67.38
2022-08-03T02:44:05.595Z,67.47
2022-08-03T02:46:42.793Z,67.28
2022-08-03T02:49:49.669Z,67.41
2022-08-03T02:52:17.019Z,67.42
2022-08-03T02:54:50.627Z,67.40
2022-08-03T02:57:24.634Z,67.44
2022-08-03T02:59:58.847Z,67.60
2022-08-03T03:02:31.834Z,67.64
2022-08-03T03:05:53.088Z,67.69
2022-08-03T03:07:58.352Z,67.70
2022-08-03T03:10:30.758Z,67.73
2022-08-03T03:13:04.541Z,67.76
2022-08-03T03:15:40.421Z,67.60
2022-08-03T03:18:15.916Z,67.73
2022-08-03T03:20:53.022Z,67.69
2022-08-03T03:23:27.061Z,67.84
2022-08-03T03:26:02.629Z,67.68
2022-08-03T03:28:37.069Z,67.70
2022-08-03T03:31:11.009Z,67.61
2022-08-03T03:33:43.927Z,67.84
2022-08-03T03:36:16.303Z,67.81
2022-08-03T03:38:48.985Z,67.73
2022-08-03T03:41:22.171Z,67.66
2022-08-03T03:43:54.766Z,67.82
2022-08-03T03:46:27.632Z,67.70
2022-08-03T03:49:00.480Z,67.60
2022-08-03T03:51:34.733Z,67.30
2022-08-03T03:54:07.482Z,67.11
2022-08-03T03:56:40.099Z,66.99
2022-08-03T03:59:12.249Z,67.05
2022-08-03T04:01:45.115Z,66.78
2022-08-03T04:04:34.822Z,66.61
2022-08-03T04:07:24.572Z,66.78
2022-08-03T04:10:15.815Z,66.67
2022-08-03T04:12:50.615Z,66.66
2022-08-03T04:15:25.269Z,66.65
2022-08-03T04:17:59.454Z,66.64
2022-08-03T04:20:37.091Z,66.67
2022-08-03T04:23:13.726Z,66.63
2022-08-03T04:25:50.536Z,66.34
2022-08-03T04:28:31.386Z,66.49
2022-08-03T04:31:04.719Z,66.44
2022-08-03T04:33:40.101Z,66.46
2022-08-03T04:36:15.935Z,65.95
2022-08-03T04:39:02.000Z,65.83
2022-08-03T04:42:04.325Z,65.68
2022-08-03T04:44:30.389Z,65.20
2022-08-03T04:47:03.462Z,64.96
2022-08-03T04:49:37.427Z,65.27
2022-08-03T04:52:11.225Z,65.11
2022-08-03T04:54:48.788Z,64.86
2022-08-03T04:57:25.167Z,64.90
2022-08-03T05:00:02.584Z,64.27
2022-08-03T05:02:35.479Z,64.15
2022-08-03T05:05:08.551Z,64.03
2022-08-03T05:07:43.764Z,64.02
2022-08-03T05:10:17.674Z,63.87
2022-08-03T05:12:52.329Z,63.70
2022-08-03T05:15:24.899Z,63.68
2022-08-03T05:17:57.235Z,63.52
2022-08-03T05:20:29.752Z,63.59
2022-08-03T05:23:03.975Z,63.57
2022-08-03T05:25:36.791Z,63.64
2022-08-03T05:28:09.470Z,63.70
2022-08-03T05:30:41.973Z,63.38
2022-08-03T05:33:14.448Z,62.94
2022-08-03T05:35:57.603Z,61.18
2022-08-03T05:38:36.440Z,58.02
2022-08-03T05:41:21.374Z,56.63
2022-08-03T05:43:57.322Z,55.33
2022-08-03T05:46:29.834Z,55.17
2022-08-03T05:49:02.206Z,55.44
2022-08-03T05:51:34.828Z,55.49
2022-08-03T05:54:07.031Z,55.09
2022-08-03T05:56:41.232Z,54.94
2022-08-03T05:59:37.149Z,54.91
2022-08-03T06:02:06.855Z,54.93
2022-08-03T06:04:39.362Z,55.03
2022-08-03T06:07:11.811Z,55.21
2022-08-03T06:10:35.184Z,55.27
2022-08-03T06:12:36.772Z,55.34
2022-08-03T06:15:11.468Z,55.32
2022-08-03T06:17:51.277Z,55.43
2022-08-03T06:20:27.323Z,54.73
2022-08-03T06:23:01.253Z,53.25
2022-08-03T06:25:33.957Z,52.23
2022-08-03T06:28:09.494Z,51.17
2022-08-03T06:30:44.849Z,49.65
2022-08-03T06:33:17.368Z,48.99
2022-08-03T06:35:49.596Z,48.57
2022-08-03T06:38:22.253Z,47.81
2022-08-03T06:40:54.959Z,47.68
2022-08-03T06:43:27.633Z,47.74
2022-08-03T06:45:59.834Z,48.19
2022-08-03T06:48:32.485Z,48.49
2022-08-03T06:51:04.814Z,48.94
2022-08-03T06:53:39.542Z,49.12
2022-08-03T06:56:11.855Z,49.39
2022-08-03T06:58:44.562Z,49.56
2022-08-03T07:01:18.798Z,48.63
2022-08-03T07:03:52.288Z,48.73
2022-08-03T07:06:24.964Z,47.78
2022-08-03T07:08:59.715Z,46.28
2022-08-03T07:11:32.316Z,44.81
2022-08-03T07:14:04.578Z,43.47
2022-08-03T07:16:36.878Z,42.28
2022-08-03T07:19:09.311Z,40.58
2022-08-03T07:21:41.721Z,39.60
2022-08-03T07:24:14.501Z,38.57
2022-08-03T07:26:47.692Z,37.19
2022-08-03T07:29:20.850Z,36.21
2022-08-03T07:31:53.257Z,35.10
2022-08-03T07:34:25.949Z,34.33
2022-08-03T07:36:59.538Z,32.91
2022-08-03T07:39:31.819Z,32.33
2022-08-03T07:42:04.427Z,30.76
2022-08-03T07:44:36.996Z,30.41
2022-08-03T07:47:09.650Z,29.90
2022-08-03T07:49:54.930Z,29.75
2022-08-03T07:52:44.776Z,28.88
2022-08-03T07:55:17.536Z,28.62
2022-08-03T07:58:00.493Z,28.77
2022-08-03T08:00:33.594Z,28.37
2022-08-03T08:03:06.115Z,28.29
2022-08-03T08:05:39.179Z,28.10
2022-08-03T08:08:11.636Z,27.47
2022-08-03T08:10:58.148Z,27.14
2022-08-03T08:13:31.491Z,26.99
2022-08-03T08:16:03.952Z,25.91
2022-08-03T08:18:36.274Z,25.58
2022-08-03T08:21:08.826Z,25.12
2022-08-03T08:23:44.367Z,24.58
2022-08-03T08:26:22.278Z,24.78
2022-08-03T08:28:54.593Z,25.26
2022-08-03T08:31:26.950Z,25.45
2022-08-03T08:34:04.014Z,25.26
2022-08-03T08:36:37.630Z,25.36
2022-08-03T08:39:10.310Z,25.80
2022-08-03T08:41:45.933Z,25.99
2022-08-03T08:44:19.804Z,26.54
2022-08-03T08:46:55.045Z,25.96
2022-08-03T08:49:29.610Z,25.80
2022-08-03T08:52:04.603Z,25.39
2022-08-03T08:55:00.159Z,25.31
2022-08-03T08:57:42.692Z,25.03
2022-08-03T09:00:17.723Z,24.77
2022-08-03T09:02:50.409Z,24.26
2022-08-03T09:05:36.270Z,24.05
2022-08-03T09:08:15.732Z,23.80
2022-08-03T09:10:48.205Z,23.59
2022-08-03T09:13:20.855Z,23.51
2022-08-03T09:16:12.452Z,23.44
2022-08-03T09:18:46.527Z,23.87
2022-08-03T09:21:34.619Z,23.68
2022-08-03T09:24:20.627Z,23.70
2022-08-03T09:27:01.108Z,23.38
2022-08-03T09:29:36.284Z,22.53
2022-08-03T09:32:08.932Z,22.57
2022-08-03T09:34:41.128Z,22.55
2022-08-03T09:37:18.243Z,22.95
2022-08-03T09:39:50.869Z,23.31
2022-08-03T09:42:24.297Z,23.42
2022-08-03T09:44:58.444Z,22.29
2022-08-03T09:47:36.434Z,22.91
2022-08-03T09:50:10.845Z,22.69
2022-08-03T09:52:49.818Z,22.70
2022-08-03T09:56:36.263Z,22.44
2022-08-03T09:58:17.919Z,23.21
2022-08-03T10:00:58.365Z,23.16
2022-08-03T10:03:32.081Z,23.02
2022-08-03T10:06:19.591Z,22.95
2022-08-03T10:09:08.282Z,22.92
2022-08-03T10:11:42.561Z,23.10
2022-08-03T10:14:19.344Z,22.81
2022-08-03T10:16:52.524Z,23.30
2022-08-03T10:19:25.769Z,23.57
2022-08-03T10:22:02.580Z,24.29
2022-08-03T10:24:38.588Z,24.20
2022-08-03T10:27:12.777Z,24.08
2022-08-03T10:29:56.263Z,23.61
2022-08-03T10:32:33.264Z,24.01
2022-08-03T10:35:19.920Z,24.35
2022-08-03T10:38:00.578Z,24.28
2022-08-03T10:40:52.614Z,24.85
2022-08-03T10:43:31.945Z,25.47
2022-08-03T10:46:06.417Z,25.18
2022-08-03T10:48:39.585Z,25.67
2022-08-03T10:51:12.009Z,25.44
2022-08-03T10:53:54.139Z,25.38
2022-08-03T10:57:13.715Z,25.36
2022-08-03T11:00:06.678Z,25.80
2022-08-03T11:03:06.829Z,25.76
2022-08-03T11:05:42.117Z,25.89
2022-08-03T11:08:35.954Z,25.86
2022-08-03T11:11:28.870Z,26.52
2022-08-03T11:14:04.674Z,26.26
2022-08-03T11:16:39.091Z,27.02
2022-08-03T11:19:12.790Z,27.31
2022-08-03T11:22:01.440Z,27.49
2022-08-03T11:25:53.417Z,27.40
2022-08-03T11:28:28.661Z,27.60
2022-08-03T11:31:53.692Z,27.86
2022-08-03T11:34:25.995Z,27.70
2022-08-03T11:37:29.948Z,27.78
2022-08-03T11:40:06.051Z,28.03
2022-08-03T11:42:48.598Z,27.64
2022-08-03T11:45:20.824Z,28.23
2022-08-03T11:47:58.809Z,28.72
2022-08-03T11:50:39.152Z,28.41
2022-08-03T11:53:17.645Z,28.36
2022-08-03T11:55:51.183Z,28.84
2022-08-03T11:59:16.753Z,28.89
2022-08-03T12:01:22.897Z,28.76
2022-08-03T12:03:55.753Z,29.13
2022-08-03T12:06:28.218Z,29.09
2022-08-03T12:09:00.591Z,29.53
2022-08-03T12:11:32.866Z,29.43
2022-08-03T12:14:48.638Z,30.00
2022-08-03T12:16:57.679Z,30.25
2022-08-03T12:19:44.718Z,30.07
2022-08-03T12:22:18.127Z,30.01
2022-08-03T12:24:51.909Z,29.73
2022-08-03T12:27:29.981Z,30.34
2022-08-03T12:30:03.873Z,30.90
2022-08-03T12:32:36.355Z,30.30
2022-08-03T12:35:10.445Z,30.36
2022-08-03T12:37:49.361Z,30.52
2022-08-03T12:40:29.052Z,30.88
2022-08-03T12:43:03.623Z,31.10
2022-08-03T12:45:36.982Z,31.52
2022-08-03T12:48:13.349Z,31.47
2022-08-03T12:50:46.150Z,31.24
2022-08-03T12:53:32.752Z,31.38
2022-08-03T12:56:07.473Z,31.99
2022-08-03T12:58:39.633Z,32.08
2022-08-03T13:01:13.667Z,32.03
2022-08-03T13:03:52.753Z,32.07
2022-08-03T13:06:26.801Z,32.05
2022-08-03T13:09:09.960Z,31.94
2022-08-03T13:11:57.806Z,32.22
2022-08-03T13:14:34.653Z,32.52
2022-08-03T13:17:08.128Z,32.44
2022-08-03T13:19:41.682Z,32.45
2022-08-03T13:22:19.197Z,32.45
2022-08-03T13:24:56.169Z,32.15
2022-08-03T13:28:04.517Z,32.27
2022-08-03T13:30:30.198Z,31.86
2022-08-03T13:33:03.522Z,32.18
2022-08-03T13:35:36.140Z,32.48
2022-08-03T13:38:08.474Z,32.78
2022-08-03T13:40:41.810Z,32.78
2022-08-03T13:43:14.672Z,33.16
2022-08-03T13:45:52.310Z,33.20
2022-08-03T13:48:36.184Z,32.92
2022-08-03T13:51:11.778Z,32.94
2022-08-03T13:53:54.896Z,32.77
2022-08-03T13:56:27.641Z,32.96
2022-08-03T13:59:00.437Z,33.14
2022-08-03T14:01:54.561Z,33.40
2022-08-03T14:04:28.002Z,33.63
2022-08-03T14:07:00.992Z,34.12
2022-08-03T14:09:33.385Z,34.32
2022-08-03T14:12:08.829Z,34.37
2022-08-03T14:14:41.773Z,34.32
2022-08-03T14:17:16.499Z,34.55
2022-08-03T14:19:52.681Z,34.94
2022-08-03T14:22:29.037Z,35.08
2022-08-03T14:25:04.150Z,35.13
2022-08-03T14:27:37.376Z,35.37
2022-08-03T14:30:11.881Z,35.31
2022-08-03T14:32:44.376Z,35.22
2022-08-03T14:35:16.826Z,35.16
2022-08-03T14:37:49.284Z,34.94
2022-08-03T14:40:22.002Z,35.22
2022-08-03T14:42:54.718Z,35.34
2022-08-03T14:45:27.260Z,35.30
2022-08-03T14:50:33.886Z,35.38
2022-08-03T14:50:53.112Z,35.82
2022-08-03T14:53:26.187Z,35.38
2022-08-03T14:55:58.827Z,35.40
2022-08-03T14:58:31.478Z,35.04
2022-08-03T15:01:03.693Z,35.15
2022-08-03T15:03:56.187Z,35.48
2022-08-03T15:06:28.485Z,36.04
2022-08-03T15:09:21.639Z,36.31
2022-08-03T15:11:52.937Z,36.70
2022-08-03T15:14:28.310Z,36.75
2022-08-03T15:17:05.060Z,36.82
2022-08-03T15:20:03.860Z,36.91
2022-08-03T15:22:34.980Z,36.91
2022-08-03T15:26:04.143Z,37.27
2022-08-03T15:28:02.697Z,37.47
2022-08-03T15:30:38.841Z,37.44
2022-08-03T15:33:11.102Z,37.39
2022-08-03T15:35:43.640Z,37.33
2022-08-03T15:38:16.156Z,36.82
2022-08-03T15:40:48.658Z,37.12
2022-08-03T15:43:20.726Z,37.25
2022-08-03T15:48:45.986Z,37.53
2022-08-03T15:51:18.463Z,37.61
2022-08-03T15:53:50.663Z,37.90
2022-08-03T15:56:23.020Z,37.56
2022-08-03T15:59:11.541Z,37.65
2022-08-03T16:01:46.493Z,37.52
2022-08-03T16:04:19.317Z,37.45
2022-08-03T16:06:51.895Z,37.70
2022-08-03T16:09:43.035Z,37.77
2022-08-03T16:12:16.909Z,37.99
2022-08-03T16:14:53.445Z,37.85
2022-08-03T16:17:26.470Z,38.00
2022-08-03T16:19:59.043Z,38.02
2022-08-03T16:22:32.315Z,38.13
2022-08-03T16:25:05.838Z,38.26
2022-08-03T16:27:56.693Z,38.61
2022-08-03T16:30:33.304Z,38.66
2022-08-03T16:33:05.778Z,38.36
2022-08-03T16:35:38.454Z,38.38
2022-08-03T16:38:14.186Z,38.46
2022-08-03T16:40:52.302Z,38.67
2022-08-03T16:43:25.493Z,38.42
2022-08-03T16:45:57.605Z,39.24
2022-08-03T16:48:30.322Z,39.48
2022-08-03T16:51:03.171Z,39.40
2022-08-03T16:54:05.421Z,39.51
2022-08-03T16:56:28.056Z,39.53
2022-08-03T16:59:01.534Z,39.75
2022-08-03T17:01:37.944Z,39.75
2022-08-03T17:04:12.092Z,39.96
2022-08-03T17:06:46.344Z,40.13
2022-08-03T17:09:20.469Z,40.14
2022-08-03T17:11:53.921Z,40.18
2022-08-03T17:14:28.580Z,40.55
2022-08-03T17:17:04.771Z,40.25
2022-08-03T17:19:47.403Z,40.27
2022-08-03T17:22:29.369Z,40.41
2022-08-03T17:25:07.860Z,40.69
2022-08-03T17:28:49.758Z,40.65
2022-08-03T17:30:55.872Z,41.09
2022-08-03T17:33:35.581Z,41.37
2022-08-03T17:36:09.161Z,41.28
2022-08-03T17:38:44.303Z,41.28
2022-08-03T17:41:19.894Z,41.33
2022-08-03T17:44:16.011Z,41.43
2022-08-03T17:46:46.575Z,41.35
2022-08-03T17:49:24.530Z,41.39
2022-08-03T17:52:02.959Z,41.66
2022-08-03T17:55:50.763Z,41.92
2022-08-03T17:58:01.326Z,41.94
2022-08-03T18:00:51.798Z,41.96
2022-08-03T18:03:29.149Z,42.24
2022-08-03T18:06:11.822Z,42.00
2022-08-03T18:08:56.573Z,42.39
2022-08-03T18:11:35.526Z,42.29
2022-08-03T18:14:16.989Z,42.04
2022-08-03T18:16:57.648Z,42.44
2022-08-03T18:20:03.682Z,42.44
2022-08-03T18:22:30.618Z,42.63
2022-08-03T18:25:07.870Z,42.85
2022-08-03T18:27:45.443Z,42.93
2022-08-03T18:30:18.740Z,42.91
2022-08-03T18:33:00.623Z,43.09
2022-08-03T18:35:53.784Z,43.01
2022-08-03T18:38:29.105Z,43.30
2022-08-03T18:41:02.109Z,43.15
2022-08-03T18:43:47.560Z,43.30
2022-08-03T18:46:38.241Z,43.44
2022-08-03T18:49:23.544Z,43.28
2022-08-03T18:52:04.987Z,43.23
2022-08-03T18:55:03.842Z,43.54
2022-08-03T18:57:50.912Z,43.64
2022-08-03T19:00:34.261Z,43.83
2022-08-03T19:03:22.722Z,44.07
2022-08-03T19:06:05.968Z,44.01
2022-08-03T19:08:48.103Z,44.11
2022-08-03T19:11:28.206Z,44.44
2022-08-03T19:14:04.150Z,44.53
2022-08-03T19:16:39.553Z,44.23
2022-08-03T19:19:14.596Z,44.31
2022-08-03T19:21:48.342Z,44.49
2022-08-03T19:24:23.546Z,44.41
2022-08-03T19:26:59.136Z,44.40
2022-08-03T19:29:59.079Z,44.04
2022-08-03T19:32:30.035Z,44.17
2022-08-03T19:35:04.617Z,44.05
2022-08-03T19:37:47.094Z,44.36
2022-08-03T19:40:19.778Z,44.29
2022-08-03T19:43:00.441Z,44.21
2022-08-03T19:45:52.638Z,44.30
2022-08-03T19:48:34.763Z,44.30
2022-08-03T19:51:12.201Z,44.31
2022-08-03T19:53:48.446Z,44.54
2022-08-03T19:56:24.730Z,44.51
2022-08-03T19:58:59.616Z,44.44
2022-08-03T20:01:31.884Z,44.61
2022-08-03T20:04:23.436Z,44.78
2022-08-03T20:06:58.748Z,44.88
2022-08-03T20:09:32.093Z,45.10
2022-08-03T20:12:04.402Z,45.22
2022-08-03T20:14:37.199Z,45.13
2022-08-03T20:17:09.848Z,45.05
2022-08-03T20:19:43.357Z,45.19
2022-08-03T20:22:17.282Z,45.27
2022-08-03T20:24:53.008Z,45.25
2022-08-03T20:27:30.053Z,45.26
2022-08-03T20:30:06.633Z,45.55
2022-08-03T20:32:41.686Z,45.67
2022-08-03T20:35:15.732Z,45.68
2022-08-03T20:37:48.309Z,45.77
2022-08-03T20:40:20.667Z,45.88
2022-08-03T20:42:53.320Z,45.93
2022-08-03T20:45:59.685Z,46.02
2022-08-03T20:48:21.981Z,46.12
2022-08-03T20:50:56.503Z,46.33
2022-08-03T20:53:59.783Z,46.26
2022-08-03T20:56:22.878Z,46.16
2022-08-03T20:58:58.023Z,46.29
2022-08-03T21:01:36.372Z,46.40
2022-08-03T21:04:11.194Z,46.46
2022-08-03T21:06:53.234Z,46.50
2022-08-03T21:09:33.478Z,46.74
2022-08-03T21:12:31.492Z,46.90
2022-08-03T21:15:07.484Z,47.01
2022-08-03T21:17:48.795Z,47.08
2022-08-03T21:20:23.539Z,47.39
2022-08-03T21:22:57.926Z,47.65
2022-08-03T21:25:32.466Z,47.84
2022-08-03T21:28:07.523Z,47.84
2022-08-03T21:30:40.688Z,48.26
2022-08-03T21:33:13.673Z,48.45
2022-08-03T21:35:48.589Z,48.72
2022-08-03T21:38:20.941Z,48.97
2022-08-03T21:41:03.180Z,49.11
2022-08-03T21:43:35.659Z,49.14
2022-08-03T21:46:08.921Z,49.36
2022-08-03T21:48:44.865Z,49.40
2022-08-03T21:51:21.376Z,49.61
2022-08-03T21:54:02.913Z,49.72
2022-08-03T21:56:41.578Z,49.82
2022-08-03T21:59:20.421Z,49.80
2022-08-03T22:01:58.660Z,49.94
2022-08-03T22:04:50.692Z,49.88
2022-08-03T22:07:26.199Z,50.05
2022-08-03T22:10:00.732Z,50.01
2022-08-03T22:12:34.197Z,50.12
2022-08-03T22:15:09.603Z,50.06
2022-08-03T22:17:55.352Z,50.16
2022-08-03T22:20:29.500Z,50.34
2022-08-03T22:23:06.762Z,50.36
2022-08-03T22:25:41.516Z,50.33
2022-08-03T22:28:15.296Z,50.63
2022-08-03T22:30:50.294Z,50.56
2022-08-03T22:33:22.454Z,50.61
2022-08-03T22:35:59.555Z,50.92
2022-08-03T22:38:34.092Z,50.97
2022-08-03T22:41:06.872Z,50.97
2022-08-03T22:43:40.048Z,50.97
2022-08-03T22:46:18.527Z,51.10
2022-08-03T22:48:51.961Z,51.41
2022-08-03T22:51:24.753Z,51.55
2022-08-03T22:53:57.493Z,51.67
2022-08-03T22:56:29.938Z,51.81
2022-08-03T22:59:02.063Z,52.00
2022-08-03T23:02:01.693Z,52.03
2022-08-03T23:04:51.076Z,52.23
2022-08-03T23:07:32.866Z,52.30
2022-08-03T23:10:09.839Z,52.62
2022-08-03T23:12:45.027Z,52.72
2022-08-03T23:15:18.833Z,52.83
2022-08-03T23:17:58.586Z,53.14
2022-08-03T23:20:31.894Z,53.41
2022-08-03T23:23:06.236Z,53.57
2022-08-03T23:25:42.139Z,53.57
2022-08-03T23:28:17.482Z,54.07
2022-08-03T23:30:53.300Z,53.95
2022-08-03T23:33:26.265Z,53.98
2022-08-03T23:36:27.931Z,54.14
2022-08-03T23:38:58.185Z,54.53
2022-08-03T23:41:32.422Z,54.60
2022-08-03T23:44:06.360Z,54.71
2022-08-03T23:46:40.015Z,54.87
2022-08-03T23:49:12.759Z,54.93
2022-08-03T23:51:53.760Z,55.41
2022-08-03T23:54:41.313Z,55.44
2022-08-03T23:57:26.783Z,55.65
